LIPE/BLQ METAR and TAF weather

Enter ICAO airport designator
Station Type Date Time Source
LIPE METAR 2023/01/30 09:50 UTC NOAA

LIPE 300950Z VRB02KT CAVOK 06/M02 Q1020


Station Type Date Time Source
LIPE Decoded METAR 2023/01/30 09:50 UTC NOAA

Bologna / Borgo Panigale, Italy (LIPE) 44-32N 011-18E 49M
Jan 30, 2023 - 04:50 AM EST / 2023.01.30 0950 UTC
Wind: Variable at 2 MPH (2 KT):0
Visibility: greater than 7 mile(s):0
Temperature: 42 F (6 C)
Dew Point: 28 F (-2 C)
Relative Humidity: 56%
Pressure (altimeter): 30.12 in. Hg (1020 hPa)
ob: LIPE 300950Z VRB02KT CAVOK 06/M02 Q1020
cycle: 10

Station Type Date Time Source
LIPE TAF 2023/01/30 06:21 UTC NOAA

TAF TAF LIPE 300500Z 3006/3106 VRB05KT 9999 FEW030
TEMPO 3022/3024 2000 BCFG
TEMPO 3100/3106 0500 FZFG

Example: see airport list